AFL1905 UWKD-URWW
Flight info
| Callsign | AFL1905 |
|---|---|
| Flight time | N/A |
| Altitude | 32000 |
| Route | SONUM1G SONUM T789 DAFOS P135 UROBO R807 RODUN RODUN1J |
| Aircraft | A320/M-SDE3FGHIRWY/LB1 |
Departure
| Time | 2026-05-07 18:00 |
|---|---|
| Airport | Kazan International Airport (UWKD) |
Arrival
| Time | N/A |
|---|---|
| Airport | Volgograd International Airport (URWW) |
| Time | Latitude | Longitude | Altitude | Speed | Heading |
|---|---|---|---|---|---|
| 2026-05-07 17:20 | 55.60657 | 49.29739 | 408 ft | 0 kts | 35° |
| 2026-05-07 17:37 | 55.60666 | 49.29749 | 410 ft | 6 kts | 32° |
| 2026-05-07 17:37 | 55.60708 | 49.29736 | 413 ft | 6 kts | 322° |
| 2026-05-07 17:38 | 55.60732 | 49.29685 | 411 ft | 5 kts | 307° |
| 2026-05-07 17:38 | 55.60764 | 49.29602 | 407 ft | 14 kts | 303° |
| 2026-05-07 17:38 | 55.60805 | 49.29497 | 412 ft | 9 kts | 305° |
| 2026-05-07 17:38 | 55.60797 | 49.29411 | 408 ft | 7 kts | 224° |
| 2026-05-07 17:39 | 55.60761 | 49.29363 | 411 ft | 6 kts | 214° |
| 2026-05-07 17:39 | 55.60710 | 49.29302 | 416 ft | 12 kts | 214° |
| 2026-05-07 17:39 | 55.60625 | 49.29199 | 413 ft | 17 kts | 215° |
| 2026-05-07 17:39 | 55.60576 | 49.28998 | 416 ft | 20 kts | 273° |
| 2026-05-07 17:40 | 55.60582 | 49.28869 | 413 ft | 9 kts | 275° |
| 2026-05-07 17:40 | 55.60587 | 49.28775 | 416 ft | 7 kts | 275° |
| 2026-05-07 17:40 | 55.60591 | 49.28680 | 416 ft | 10 kts | 275° |
| 2026-05-07 17:40 | 55.60621 | 49.28538 | 407 ft | 13 kts | 306° |
| 2026-05-07 17:41 | 55.60675 | 49.28400 | 413 ft | 15 kts | 304° |
| 2026-05-07 17:41 | 55.60722 | 49.28279 | 407 ft | 11 kts | 304° |
| 2026-05-07 17:41 | 55.60764 | 49.28170 | 410 ft | 10 kts | 304° |
| 2026-05-07 17:41 | 55.60820 | 49.28026 | 409 ft | 16 kts | 304° |
| 2026-05-07 17:42 | 55.60889 | 49.27851 | 414 ft | 18 kts | 305° |
| 2026-05-07 17:42 | 55.60961 | 49.27662 | 414 ft | 18 kts | 304° |
| 2026-05-07 17:42 | 55.61042 | 49.27457 | 408 ft | 23 kts | 305° |
| 2026-05-07 17:42 | 55.61131 | 49.27224 | 413 ft | 25 kts | 304° |
| 2026-05-07 17:43 | 55.61233 | 49.26963 | 414 ft | 24 kts | 303° |
| 2026-05-07 17:43 | 55.61333 | 49.26705 | 414 ft | 26 kts | 305° |
| 2026-05-07 17:43 | 55.61441 | 49.26429 | 408 ft | 28 kts | 305° |
| 2026-05-07 17:43 | 55.61555 | 49.26138 | 412 ft | 30 kts | 304° |
| 2026-05-07 17:44 | 55.61656 | 49.25879 | 411 ft | 23 kts | 304° |
| 2026-05-07 17:44 | 55.61749 | 49.25636 | 414 ft | 23 kts | 304° |
| 2026-05-07 17:44 | 55.61831 | 49.25421 | 410 ft | 8 kts | 303° |
| 2026-05-07 17:44 | 55.61831 | 49.25419 | 411 ft | 0 kts | 303° |
| 2026-05-07 17:45 | 55.61843 | 49.25388 | 411 ft | 8 kts | 302° |
| 2026-05-07 17:45 | 55.61849 | 49.25309 | 415 ft | 5 kts | 250° |
| 2026-05-07 17:45 | 55.61827 | 49.25265 | 412 ft | 5 kts | 218° |
| 2026-05-07 17:46 | 55.61826 | 49.25264 | 412 ft | 0 kts | 218° |
| 2026-05-07 17:55 | 55.61823 | 49.25260 | 408 ft | 0 kts | 218° |
| 2026-05-07 17:55 | 55.61817 | 49.25251 | 410 ft | 3 kts | 217° |
| 2026-05-07 17:55 | 55.61810 | 49.25242 | 413 ft | 2 kts | 217° |
| 2026-05-07 17:55 | 55.61805 | 49.25236 | 413 ft | 0 kts | 216° |
| 2026-05-07 17:56 | 55.61801 | 49.25231 | 412 ft | 0 kts | 216° |
| 2026-05-07 17:58 | 55.61777 | 49.25201 | 409 ft | 9 kts | 215° |
| 2026-05-07 17:58 | 55.61723 | 49.25140 | 409 ft | 9 kts | 205° |
| 2026-05-07 17:58 | 55.61681 | 49.25159 | 410 ft | 4 kts | 138° |
| 2026-05-07 17:59 | 55.61671 | 49.25182 | 411 ft | 0 kts | 125° |
| 2026-05-07 17:59 | 55.61626 | 49.25301 | 411 ft | 43 kts | 124° |
| 2026-05-07 18:00 | 55.61313 | 49.26106 | 413 ft | 112 kts | 124° |
| 2026-05-07 18:00 | 55.60765 | 49.27515 | 434 ft | 162 kts | 124° |
| 2026-05-07 18:00 | 55.60080 | 49.29231 | 900 ft | 178 kts | 125° |
| 2026-05-07 18:00 | 55.59350 | 49.31062 | 1535 ft | 188 kts | 124° |
| 2026-05-07 18:01 | 55.58561 | 49.33096 | 2036 ft | 212 kts | 123° |
| 2026-05-07 18:01 | 55.57705 | 49.35317 | 2795 ft | 223 kts | 124° |
| 2026-05-07 18:01 | 55.56817 | 49.37618 | 3597 ft | 232 kts | 124° |
| 2026-05-07 18:01 | 55.55893 | 49.40007 | 3912 ft | 237 kts | 123° |